createdAt,value
2022-09-05T00:01:32.838Z,85.60
2022-09-05T00:04:24.325Z,85.96
2022-09-05T00:07:03.108Z,85.84
2022-09-05T00:09:52.532Z,86.14
2022-09-05T00:12:23.365Z,86.16
2022-09-05T00:15:15.896Z,86.08
2022-09-05T00:19:10.692Z,85.90
2022-09-05T00:24:26.687Z,85.86
2022-09-05T00:24:28.937Z,85.90
2022-09-05T00:26:51.149Z,85.18
2022-09-05T00:30:33.361Z,84.49
2022-09-05T00:32:28.451Z,84.30
2022-09-05T00:35:09.903Z,84.25
2022-09-05T00:37:40.721Z,84.65
2022-09-05T00:40:22.925Z,84.66
2022-09-05T00:42:55.260Z,84.72
2022-09-05T00:45:31.733Z,84.50
2022-09-05T00:48:07.279Z,85.09
2022-09-05T00:50:41.726Z,84.44
2022-09-05T00:53:16.689Z,83.88
2022-09-05T00:55:58.893Z,84.18
2022-09-05T00:58:46.342Z,84.10
2022-09-05T01:01:29.149Z,83.58
2022-09-05T01:04:28.466Z,84.48
2022-09-05T01:07:11.426Z,85.18
2022-09-05T01:09:51.555Z,84.85
2022-09-05T01:12:53.067Z,84.88
2022-09-05T01:15:32.513Z,85.29
2022-09-05T01:18:25.891Z,85.02
2022-09-05T01:21:13.539Z,85.25
2022-09-05T01:23:58.362Z,85.14
2022-09-05T01:26:45.199Z,85.46
2022-09-05T01:29:24.570Z,85.47
2022-09-05T01:32:09.574Z,85.70
2022-09-05T01:34:49.945Z,85.89
2022-09-05T01:37:33.808Z,86.16
2022-09-05T01:40:17.449Z,86.38
2022-09-05T01:43:02.606Z,86.11
2022-09-05T01:45:47.352Z,86.25
2022-09-05T01:48:28.623Z,86.33
2022-09-05T01:51:10.827Z,86.41
2022-09-05T01:54:21.357Z,86.37
2022-09-05T01:57:04.119Z,86.23
2022-09-05T01:59:45.240Z,85.85
2022-09-05T02:02:24.723Z,85.25
2022-09-05T02:05:11.497Z,84.95
2022-09-05T02:08:08.093Z,84.74
2022-09-05T02:10:44.750Z,84.61
2022-09-05T02:13:21.667Z,84.49
2022-09-05T02:15:59.734Z,84.35
2022-09-05T02:18:45.574Z,84.17
2022-09-05T02:21:24.895Z,84.07
2022-09-05T02:24:03.120Z,83.55
2022-09-05T02:26:35.569Z,83.62
2022-09-05T02:29:13.316Z,83.19
2022-09-05T02:32:04.563Z,83.28
2022-09-05T02:34:42.003Z,83.62
2022-09-05T02:37:22.849Z,83.37
2022-09-05T02:45:02.308Z,83.45
2022-09-05T02:45:08.516Z,84.30
2022-09-05T02:46:07.788Z,84.26
2022-09-05T02:48:51.105Z,84.67
2022-09-05T02:57:25.826Z,85.05
2022-09-05T02:57:43.478Z,85.29
2022-09-05T02:58:07.236Z,85.46
2022-09-05T03:00:21.503Z,85.42
2022-09-05T03:03:21.793Z,85.34
2022-09-05T03:05:58.253Z,85.56
2022-09-05T03:08:45.990Z,85.76
2022-09-05T03:11:45.799Z,85.74
2022-09-05T03:14:49.913Z,86.02
2022-09-05T03:17:48.437Z,85.72
2022-09-05T03:20:51.609Z,85.94
2022-09-05T03:23:39.677Z,85.90
2022-09-05T03:26:49.053Z,85.89
2022-09-05T03:29:58.436Z,86.02
2022-09-05T03:33:08.547Z,86.01
2022-09-05T03:36:09.191Z,85.72
2022-09-05T03:39:10.377Z,85.55
2022-09-05T03:41:58.623Z,85.81
2022-09-05T03:44:40.802Z,85.47
2022-09-05T03:47:40.334Z,85.89
2022-09-05T03:54:45.831Z,85.88
2022-09-05T03:57:11.161Z,85.67
2022-09-05T03:57:23.306Z,85.83
2022-09-05T03:59:55.321Z,85.84
2022-09-05T04:08:10.371Z,85.55
2022-09-05T04:08:28.022Z,85.59
2022-09-05T04:08:40.945Z,85.41
2022-09-05T04:11:04.886Z,85.53
2022-09-05T04:13:38.865Z,85.55
2022-09-05T04:16:13.558Z,85.49
2022-09-05T04:18:44.701Z,85.77
2022-09-05T04:21:18.343Z,85.86
2022-09-05T04:23:53.835Z,85.90
2022-09-05T04:26:37.742Z,86.19
2022-09-05T04:29:16.897Z,86.19
2022-09-05T04:32:15.393Z,86.35
2022-09-05T04:34:51.677Z,86.33
2022-09-05T04:37:48.921Z,86.15
2022-09-05T04:40:53.066Z,85.99
2022-09-05T04:43:29.126Z,86.09
2022-09-05T04:46:08.352Z,86.02
2022-09-05T04:48:39.133Z,86.29
2022-09-05T04:51:12.843Z,86.20
2022-09-05T04:54:00.985Z,85.99
2022-09-05T04:56:34.495Z,85.87
2022-09-05T05:01:13.176Z,85.88
2022-09-05T05:06:08.356Z,85.76
2022-09-05T05:06:17.746Z,85.66
2022-09-05T05:07:51.578Z,85.56
2022-09-05T05:12:23.925Z,85.23
2022-09-05T05:17:59.174Z,84.97
2022-09-05T05:18:13.921Z,84.86
2022-09-05T05:19:18.835Z,84.77
2022-09-05T05:21:52.403Z,84.71
2022-09-05T05:24:24.763Z,84.13
2022-09-05T05:26:57.323Z,84.11
2022-09-05T05:29:34.394Z,83.88
2022-09-05T05:32:06.615Z,83.68
2022-09-05T05:34:42.570Z,83.43
2022-09-05T05:37:19.289Z,83.08
2022-09-05T05:39:52.102Z,82.74
2022-09-05T05:42:24.167Z,82.34
2022-09-05T05:44:54.759Z,82.09
2022-09-05T05:47:29.937Z,81.71
2022-09-05T05:50:11.506Z,81.00
2022-09-05T05:52:54.867Z,81.02
2022-09-05T05:55:51.286Z,80.88
2022-09-05T05:58:35.614Z,81.04
2022-09-05T06:01:41.433Z,81.03
2022-09-05T06:04:44.910Z,80.91
2022-09-05T06:07:22.822Z,80.92
2022-09-05T06:14:56.254Z,80.58
2022-09-05T06:15:05.148Z,80.59
2022-09-05T06:17:11.077Z,81.74
2022-09-05T06:22:04.021Z,82.73
2022-09-05T06:26:09.838Z,82.17
2022-09-05T06:28:53.429Z,81.41
2022-09-05T06:31:49.008Z,81.38
2022-09-05T06:34:44.789Z,81.15
2022-09-05T06:37:27.347Z,80.56
2022-09-05T06:40:09.006Z,80.50
2022-09-05T06:42:55.034Z,80.63
2022-09-05T06:45:35.374Z,80.74
2022-09-05T06:48:14.581Z,80.85
2022-09-05T06:51:34.062Z,81.54
2022-09-05T06:54:20.731Z,81.00
2022-09-05T06:57:03.615Z,80.42
2022-09-05T07:00:22.683Z,79.69
2022-09-05T07:03:10.520Z,79.50
2022-09-05T07:05:46.939Z,79.17
2022-09-05T07:08:36.155Z,79.16
2022-09-05T07:11:16.780Z,78.36
2022-09-05T07:13:57.212Z,77.23
2022-09-05T07:16:38.982Z,76.85
2022-09-05T07:19:24.314Z,75.96
2022-09-05T07:22:46.367Z,75.80
2022-09-05T07:25:08.807Z,75.81
2022-09-05T07:27:43.037Z,75.43
2022-09-05T07:30:29.139Z,74.64
2022-09-05T07:33:02.883Z,73.81
2022-09-05T07:35:34.679Z,74.57
2022-09-05T07:38:15.951Z,74.31
2022-09-05T07:40:51.675Z,74.00
2022-09-05T07:43:23.818Z,73.15
2022-09-05T07:46:03.407Z,72.96
2022-09-05T07:48:39.657Z,73.04
2022-09-05T07:56:53.934Z,72.93
2022-09-05T07:56:54.712Z,72.22
2022-09-05T07:59:42.556Z,71.30
2022-09-05T08:02:13.845Z,71.54
2022-09-05T08:04:42.914Z,71.24
2022-09-05T08:07:47.175Z,70.30
2022-09-05T08:10:10.030Z,69.94
2022-09-05T08:13:23.066Z,70.08
2022-09-05T08:16:04.328Z,70.43
2022-09-05T08:18:30.534Z,70.71
2022-09-05T08:21:07.726Z,67.98
2022-09-05T08:23:52.955Z,67.89
2022-09-05T08:26:31.851Z,67.59
2022-09-05T08:29:06.093Z,67.24
2022-09-05T08:31:42.271Z,66.45
2022-09-05T08:34:16.001Z,66.16
2022-09-05T08:36:47.269Z,66.10
2022-09-05T08:39:19.490Z,65.03
2022-09-05T08:42:05.963Z,65.27
2022-09-05T08:46:39.790Z,64.92
2022-09-05T08:47:44.935Z,64.37
2022-09-05T08:50:37.542Z,63.71
2022-09-05T08:53:43.126Z,63.66
2022-09-05T08:56:10.165Z,63.20
2022-09-05T08:58:54.080Z,61.80
2022-09-05T09:02:14.705Z,62.22
2022-09-05T09:05:02.290Z,62.17
2022-09-05T09:07:51.686Z,60.80
2022-09-05T09:10:46.245Z,60.17
2022-09-05T09:13:29.569Z,59.43
2022-09-05T09:16:04.969Z,58.58
2022-09-05T09:18:45.811Z,58.77
2022-09-05T09:21:34.275Z,57.45
2022-09-05T09:24:10.748Z,58.95
2022-09-05T09:26:48.164Z,58.01
2022-09-05T09:29:19.387Z,55.98
2022-09-05T09:32:02.354Z,56.19
2022-09-05T09:34:47.090Z,54.50
2022-09-05T09:37:59.699Z,54.49
2022-09-05T09:40:50.206Z,54.37
2022-09-05T09:43:52.718Z,54.03
2022-09-05T09:46:33.986Z,53.79
2022-09-05T09:49:22.962Z,53.56
2022-09-05T09:52:19.530Z,52.89
2022-09-05T09:55:32.822Z,52.71
2022-09-05T09:58:29.363Z,52.41
2022-09-05T10:01:35.196Z,52.57
2022-09-05T10:10:34.136Z,51.80
2022-09-05T10:10:43.853Z,49.57
2022-09-05T10:11:25.900Z,49.65
2022-09-05T10:13:59.062Z,49.77
2022-09-05T10:17:10.237Z,49.16
2022-09-05T10:20:14.278Z,48.64
2022-09-05T10:23:09.634Z,46.95
2022-09-05T10:26:01.423Z,46.94
2022-09-05T10:28:39.170Z,47.32
2022-09-05T10:32:25.997Z,48.15
2022-09-05T10:35:23.215Z,46.78
2022-09-05T10:37:13.222Z,48.75
2022-09-05T10:39:47.309Z,46.15
2022-09-05T10:42:22.602Z,46.87
2022-09-05T10:44:54.322Z,45.43
2022-09-05T10:47:40.034Z,46.33
2022-09-05T10:50:19.855Z,45.29
2022-09-05T10:53:03.313Z,44.29
2022-09-05T10:55:38.518Z,44.41
2022-09-05T10:58:22.128Z,43.39
2022-09-05T11:02:29.552Z,43.79
2022-09-05T11:04:23.312Z,44.15
2022-09-05T11:06:56.103Z,43.16
2022-09-05T11:09:33.037Z,43.70
2022-09-05T11:12:08.208Z,44.20
2022-09-05T11:14:49.727Z,45.63
2022-09-05T11:17:30.460Z,44.77
2022-09-05T11:20:34.502Z,46.63
2022-09-05T11:23:12.085Z,46.44
2022-09-05T11:25:41.353Z,46.34
2022-09-05T11:28:15.954Z,45.49
2022-09-05T11:30:49.546Z,46.02
2022-09-05T11:39:35.089Z,45.94
2022-09-05T11:39:58.356Z,47.22
2022-09-05T11:40:31.418Z,47.97
2022-09-05T11:43:36.301Z,48.24
2022-09-05T11:46:21.821Z,48.67
2022-09-05T11:49:24.073Z,49.11
2022-09-05T11:52:42.033Z,50.90
2022-09-05T11:56:06.356Z,52.23
2022-09-05T11:59:13.762Z,50.00
2022-09-05T12:01:55.304Z,51.39
2022-09-05T12:05:48.335Z,51.16
2022-09-05T12:07:57.472Z,49.12
2022-09-05T12:10:46.190Z,49.26
2022-09-05T12:13:31.284Z,49.28
2022-09-05T12:16:07.822Z,49.84
2022-09-05T12:18:45.970Z,47.47
2022-09-05T12:21:26.909Z,48.64
2022-09-05T12:24:24.753Z,50.02
2022-09-05T12:27:41.714Z,51.25
2022-09-05T12:29:59.538Z,50.34
2022-09-05T12:35:30.336Z,49.99
2022-09-05T12:36:11.621Z,50.82
2022-09-05T12:41:32.639Z,51.87
2022-09-05T12:41:43.000Z,49.25
2022-09-05T12:44:42.062Z,48.86
2022-09-05T12:47:18.657Z,50.25
2022-09-05T12:50:02.932Z,48.85
2022-09-05T12:52:42.763Z,49.36
2022-09-05T12:55:19.391Z,50.04
2022-09-05T12:59:56.668Z,49.55
2022-09-05T13:03:07.412Z,49.74
2022-09-05T13:03:53.739Z,51.28
2022-09-05T13:06:31.283Z,49.82
2022-09-05T13:09:05.196Z,49.43
2022-09-05T13:14:57.932Z,46.71
2022-09-05T13:15:07.844Z,49.73
2022-09-05T13:17:37.364Z,48.58
2022-09-05T13:20:19.800Z,49.46
2022-09-05T13:22:50.783Z,51.41
2022-09-05T13:25:24.924Z,48.96
2022-09-05T13:27:59.487Z,49.22
2022-09-05T13:34:32.395Z,48.22
2022-09-05T13:38:19.616Z,49.48
2022-09-05T13:38:20.156Z,51.45
2022-09-05T13:39:07.745Z,46.36
2022-09-05T13:41:37.770Z,47.74
2022-09-05T13:44:25.497Z,47.43
2022-09-05T13:47:29.049Z,49.84
2022-09-05T13:50:08.223Z,49.28
2022-09-05T13:52:42.616Z,49.18
2022-09-05T13:55:22.165Z,49.08
2022-09-05T13:57:55.901Z,49.58
2022-09-05T14:00:45.170Z,50.59
2022-09-05T14:03:37.644Z,50.57
2022-09-05T14:06:46.644Z,50.83
2022-09-05T14:09:46.787Z,49.48
2022-09-05T14:12:29.920Z,49.46
2022-09-05T14:15:10.403Z,49.63
2022-09-05T14:17:56.624Z,48.50
2022-09-05T14:20:50.200Z,49.21
2022-09-05T14:23:22.411Z,48.72
2022-09-05T14:25:57.072Z,49.25
2022-09-05T14:28:31.716Z,49.40
2022-09-05T14:33:57.631Z,49.38
2022-09-05T14:37:50.094Z,49.12
2022-09-05T14:37:52.920Z,49.63
2022-09-05T14:40:32.538Z,51.67
2022-09-05T14:43:26.702Z,50.20
2022-09-05T14:46:11.394Z,49.68
2022-09-05T14:49:12.373Z,51.42
2022-09-05T14:51:47.498Z,50.97
2022-09-05T15:02:45.214Z,50.66
2022-09-05T15:02:49.949Z,51.33
2022-09-05T15:03:04.840Z,49.82
2022-09-05T15:05:42.014Z,49.84
2022-09-05T15:08:14.889Z,49.33
2022-09-05T15:12:20.656Z,49.65
2022-09-05T15:14:03.481Z,48.64
2022-09-05T15:16:35.503Z,45.81
2022-09-05T15:19:03.867Z,48.06
2022-09-05T15:21:35.356Z,50.72
2022-09-05T15:24:21.463Z,50.33
2022-09-05T15:26:53.150Z,48.30
2022-09-05T15:29:23.889Z,48.83
2022-09-05T15:32:07.621Z,48.86
2022-09-05T15:34:38.989Z,46.50
2022-09-05T15:37:23.201Z,45.30
2022-09-05T15:40:02.254Z,44.72
2022-09-05T15:42:33.210Z,43.48
2022-09-05T15:45:10.150Z,43.49
2022-09-05T15:47:45.426Z,42.84
2022-09-05T15:50:22.227Z,44.22
2022-09-05T15:52:55.648Z,45.42
2022-09-05T15:55:26.177Z,45.19
2022-09-05T15:57:56.407Z,45.07
2022-09-05T16:00:43.648Z,45.73
2022-09-05T16:05:46.352Z,45.81
2022-09-05T16:10:35.690Z,47.03
2022-09-05T16:10:41.559Z,47.46
2022-09-05T16:15:17.823Z,48.62
2022-09-05T16:23:15.096Z,48.47
2022-09-05T16:23:32.267Z,48.18
2022-09-05T16:23:42.087Z,47.89
2022-09-05T16:26:19.133Z,48.11
2022-09-05T16:28:58.994Z,48.71
2022-09-05T16:31:35.256Z,48.69
2022-09-05T16:34:11.740Z,50.32
2022-09-05T16:37:00.908Z,51.28
2022-09-05T16:39:42.409Z,51.95
2022-09-05T16:42:16.310Z,52.17
2022-09-05T16:44:48.272Z,50.70
2022-09-05T16:47:25.778Z,50.10
2022-09-05T16:50:03.799Z,50.33
2022-09-05T16:52:56.151Z,51.15
2022-09-05T16:55:33.896Z,52.76
2022-09-05T16:58:08.936Z,52.85
2022-09-05T17:00:49.441Z,53.73
2022-09-05T17:03:28.931Z,53.80
2022-09-05T17:06:06.822Z,53.97
2022-09-05T17:08:36.990Z,54.56
2022-09-05T17:11:15.671Z,54.30
2022-09-05T17:14:07.405Z,54.93
2022-09-05T17:16:42.668Z,55.47
2022-09-05T17:19:22.501Z,55.52
2022-09-05T17:28:46.031Z,54.99
2022-09-05T17:29:26.613Z,55.35
2022-09-05T17:29:39.124Z,56.06
2022-09-05T17:33:50.082Z,56.62
2022-09-05T17:36:23.298Z,57.01
2022-09-05T17:39:44.963Z,57.64
2022-09-05T17:42:32.396Z,58.45
2022-09-05T17:45:12.805Z,58.85
2022-09-05T17:47:48.588Z,59.21
2022-09-05T17:50:19.759Z,59.11
2022-09-05T17:53:26.113Z,59.84
2022-09-05T17:56:13.283Z,60.38
2022-09-05T17:59:02.770Z,60.92
2022-09-05T18:01:32.332Z,61.25
2022-09-05T18:04:17.056Z,61.30
2022-09-05T18:06:59.409Z,61.43
2022-09-05T18:10:05.933Z,61.26
2022-09-05T18:16:05.869Z,61.02
2022-09-05T18:19:28.376Z,62.32
2022-09-05T18:21:25.821Z,63.87
2022-09-05T18:24:02.143Z,66.10
2022-09-05T18:26:39.162Z,67.17
2022-09-05T18:29:14.512Z,68.34
2022-09-05T18:32:03.003Z,68.20
2022-09-05T18:34:46.737Z,68.57
2022-09-05T18:38:02.305Z,67.90
2022-09-05T18:40:52.929Z,67.35
2022-09-05T18:43:35.858Z,68.24
2022-09-05T18:46:13.704Z,68.76
2022-09-05T18:49:35.360Z,69.55
2022-09-05T18:51:52.985Z,71.27
2022-09-05T18:54:25.370Z,71.56
2022-09-05T18:57:27.410Z,72.13
2022-09-05T18:59:53.066Z,72.75
2022-09-05T19:02:28.809Z,72.99
2022-09-05T19:05:17.959Z,72.81
2022-09-05T19:07:49.812Z,72.85
2022-09-05T19:10:35.957Z,72.32
2022-09-05T19:13:12.067Z,72.44
2022-09-05T19:15:49.824Z,72.63
2022-09-05T19:18:26.060Z,73.60
2022-09-05T19:21:11.947Z,74.42
2022-09-05T19:23:50.842Z,74.48
2022-09-05T19:26:19.425Z,75.88
2022-09-05T19:36:51.312Z,75.68
2022-09-05T19:36:53.753Z,75.91
2022-09-05T19:36:54.920Z,76.64
2022-09-05T19:37:30.512Z,76.51
2022-09-05T19:46:00.794Z,77.14
2022-09-05T19:47:41.054Z,77.13
2022-09-05T19:47:50.723Z,77.16
2022-09-05T19:48:35.231Z,77.32
2022-09-05T19:51:17.491Z,77.22
2022-09-05T19:53:53.832Z,77.06
2022-09-05T19:56:37.124Z,76.74
2022-09-05T19:59:16.812Z,76.71
2022-09-05T20:01:46.066Z,76.58
2022-09-05T20:04:19.067Z,76.81
2022-09-05T20:06:47.065Z,76.45
2022-09-05T20:09:16.666Z,76.80
2022-09-05T20:11:49.709Z,77.20
2022-09-05T20:14:23.707Z,77.42
2022-09-05T20:16:53.246Z,77.75
2022-09-05T20:19:30.718Z,78.25
2022-09-05T20:22:18.726Z,78.47
2022-09-05T20:24:55.302Z,78.76
2022-09-05T20:27:28.249Z,78.54
2022-09-05T20:29:58.194Z,78.57
2022-09-05T20:32:38.981Z,78.22
2022-09-05T20:37:58.615Z,78.36
2022-09-05T20:43:18.926Z,79.21
2022-09-05T20:43:23.237Z,78.59
2022-09-05T20:44:04.758Z,79.90
2022-09-05T20:53:03.612Z,80.24
2022-09-05T20:54:15.603Z,80.71
2022-09-05T20:54:19.756Z,80.60
2022-09-05T20:55:39.196Z,81.08
2022-09-05T20:58:11.487Z,81.17
2022-09-05T21:01:19.805Z,81.72
2022-09-05T21:03:37.833Z,81.83
2022-09-05T21:06:19.966Z,82.04
2022-09-05T21:08:47.683Z,82.26
2022-09-05T21:11:15.376Z,82.27
2022-09-05T21:13:52.796Z,81.91
2022-09-05T21:16:28.386Z,81.83
2022-09-05T21:18:56.364Z,81.66
2022-09-05T21:21:29.555Z,81.58
2022-09-05T21:24:16.796Z,81.63
2022-09-05T21:26:48.215Z,82.03
2022-09-05T21:29:17.559Z,81.83
2022-09-05T21:31:53.549Z,81.91
2022-09-05T21:34:26.273Z,82.20
2022-09-05T21:36:57.930Z,82.50
2022-09-05T21:39:39.942Z,82.98
2022-09-05T21:43:14.641Z,82.78
2022-09-05T21:47:37.388Z,82.60
2022-09-05T21:47:53.097Z,82.38
2022-09-05T21:50:30.609Z,82.62
2022-09-05T21:53:31.197Z,82.30
2022-09-05T21:59:21.754Z,82.66
2022-09-05T21:59:26.557Z,82.72
2022-09-05T22:01:46.317Z,82.96
2022-09-05T22:04:15.278Z,83.08
2022-09-05T22:06:44.761Z,82.71
2022-09-05T22:09:14.310Z,82.24
2022-09-05T22:11:42.165Z,82.34
2022-09-05T22:14:10.637Z,82.37
2022-09-05T22:16:40.053Z,82.09
2022-09-05T22:19:17.755Z,82.66
2022-09-05T22:21:45.571Z,83.29
2022-09-05T22:24:13.732Z,84.17
2022-09-05T22:27:10.780Z,84.00
2022-09-05T22:29:34.431Z,84.11
2022-09-05T22:32:02.430Z,83.79
2022-09-05T22:34:31.837Z,83.29
2022-09-05T22:36:59.547Z,83.46
2022-09-05T22:39:36.804Z,83.91
2022-09-05T22:42:10.372Z,84.15
2022-09-05T22:44:38.962Z,84.72
2022-09-05T22:47:07.149Z,84.69
2022-09-05T22:49:37.332Z,84.44
2022-09-05T22:52:06.287Z,84.62
2022-09-05T22:54:34.643Z,84.62
2022-09-05T22:57:02.782Z,85.07
2022-09-05T22:59:31.183Z,84.86
2022-09-05T23:01:59.442Z,84.88
2022-09-05T23:04:27.531Z,84.60
2022-09-05T23:06:56.539Z,84.29
2022-09-05T23:09:24.485Z,83.99
2022-09-05T23:11:52.082Z,84.19
2022-09-05T23:14:19.716Z,84.16
2022-09-05T23:16:47.297Z,84.26
2022-09-05T23:19:15.206Z,84.45
2022-09-05T23:21:42.850Z,84.49
2022-09-05T23:24:12.625Z,84.43
2022-09-05T23:26:40.229Z,84.73
2022-09-05T23:29:08.313Z,84.70
2022-09-05T23:31:36.009Z,84.82
2022-09-05T23:34:03.977Z,84.57
2022-09-05T23:36:32.145Z,84.56
2022-09-05T23:38:59.777Z,84.54
2022-09-05T23:41:28.791Z,84.36
2022-09-05T23:43:56.757Z,84.55
2022-09-05T23:46:24.549Z,84.54
2022-09-05T23:48:52.569Z,84.70
2022-09-05T23:51:20.176Z,84.57
2022-09-05T23:53:48.089Z,84.70
2022-09-05T23:56:15.701Z,84.94
2022-09-05T23:58:46.018Z,84.70
